Time;durP1;ratioP1;P1;durP2;ratioP2;P2;SDS_P1;SDS_P2;PMS_P1;PMS_P2;Temp;Humidity;BMP_temperature;BMP_pressure;BME280_temperature;BME280_humidity;BME280_pressure;Samples;Min_cycle;Max_cycle;Signal;HPM_P1;HPM_P2
2023/11/16 00:00:32;;;;;;;;;;;7.40;71.70;;;2.68;100.00;95961.66;4922100;28;19914;-54
2023/11/16 00:03:00;;;;;;;;;;;7.50;71.80;;;2.68;100.00;95958.22;4953938;28;20432;-54
2023/11/16 00:05:25;;;;;;;;;;;7.50;71.80;;;2.69;100.00;95959.84;4966256;28;19935;-52
2023/11/16 00:07:53;;;;;;;;;;;7.50;71.80;;;2.69;100.00;95951.94;4956749;28;20614;-52
2023/11/16 00:10:19;;;;;;;;;;;7.50;71.80;;;2.69;100.00;95950.13;4953336;28;19910;-49
2023/11/16 00:12:45;;;;;;;;;;;7.60;71.80;;;2.71;100.00;95955.19;4957756;28;19921;-50
2023/11/16 00:15:11;;;;;;;;;;;7.60;71.70;;;2.71;100.00;95950.72;4955480;28;19934;-51
2023/11/16 00:17:38;;;;;;;;;;;7.60;71.70;;;2.74;100.00;95952.16;4959182;28;19945;-53
2023/11/16 00:20:09;;;;;;;;;;;7.60;71.70;;;2.72;100.00;95954.16;4958390;28;19917;-55
2023/11/16 00:22:35;;;;;;;;;;;7.60;71.70;;;2.79;100.00;95957.63;4960586;28;20313;-51
2023/11/16 00:25:05;;;;;;;;;;;7.60;71.70;;;2.80;100.00;95953.97;4958988;28;20017;-53
2023/11/16 00:27:32;;;;;;;;;;;7.60;71.80;;;2.76;100.00;95943.03;4965052;28;20364;-51
2023/11/16 00:29:59;;;;;;;;;;;7.60;71.80;;;2.76;100.00;95956.19;4964765;28;20364;-50
2023/11/16 00:32:25;;;;;;;;;;;7.60;71.70;;;2.77;100.00;95949.09;4966060;28;19913;-52
2023/11/16 00:34:51;;;;;;;;;;;7.60;71.80;;;2.76;100.00;95947.50;4954219;28;19956;-52
2023/11/16 00:37:16;;;;;;;;;;;7.60;71.70;;;2.72;100.00;95952.34;4960836;28;19913;-51
2023/11/16 00:39:43;;;;;;;;;;;7.60;71.80;;;2.77;100.00;95943.84;4961541;28;19914;-50
2023/11/16 00:42:09;;;;;;;;;;;7.60;71.80;;;2.77;100.00;95934.13;4963268;28;20380;-54
2023/11/16 00:44:35;;;;;;;;;;;7.60;71.80;;;2.75;100.00;95937.97;4959115;28;19925;-53
2023/11/16 00:47:01;;;;;;;;;;;7.60;71.80;;;2.76;100.00;95940.41;4965937;28;19918;-51
2023/11/16 00:49:27;;;;;;;;;;;7.60;71.80;;;2.80;100.00;95940.00;4960795;28;19961;-53
2023/11/16 00:51:53;;;;;;;;;;;7.60;71.80;;;2.81;100.00;95942.41;4965667;28;19910;-51
2023/11/16 00:54:22;;;;;;;;;;;7.60;71.80;;;2.83;100.00;95936.97;4961276;28;19941;-53
2023/11/16 00:56:49;;;;;;;;;;;7.70;72.00;;;2.85;100.00;95943.63;4958048;28;19918;-51
2023/11/16 00:59:15;;;;;;;;;;;7.70;72.00;;;2.85;100.00;95935.75;4962833;28;19945;-51
2023/11/16 01:01:41;;;;;;;;;;;7.70;71.90;;;2.87;100.00;95944.22;4959069;28;19910;-52
2023/11/16 01:04:11;;;;;;;;;;;7.70;71.90;;;2.88;100.00;95937.13;4963141;28;19910;-51
2023/11/16 01:06:39;;;;;;;;;;;7.70;71.80;;;2.84;100.00;95934.09;4967539;28;19910;-50
2023/11/16 01:09:08;;;;;;;;;;;7.70;71.70;;;2.82;100.00;95941.41;4957784;28;19997;-53
2023/11/16 01:11:36;;;;;;;;;;;7.70;71.70;;;2.79;100.00;95933.94;4960945;28;19956;-50
2023/11/16 01:14:03;;;;;;;;;;;7.60;71.60;;;2.77;100.00;95928.88;4958906;28;19918;-50
2023/11/16 01:16:42;;;;;;;;;;;7.60;71.60;;;2.76;100.00;95922.00;4954503;28;19925;-53
2023/11/16 01:19:09;;;;;;;;;;;7.60;71.60;;;2.75;100.00;95924.81;4955051;28;19911;-50
2023/11/16 01:21:50;;;;;;;;;;;7.60;71.70;;;2.79;100.00;95926.03;4961772;28;20280;-52
2023/11/16 01:24:18;;;;;;;;;;;7.60;71.80;;;2.86;100.00;95928.66;4960326;28;19944;-51
2023/11/16 01:26:44;;;;;;;;;;;7.60;72.00;;;2.92;100.00;95928.63;4957268;28;19910;-52
2023/11/16 01:29:16;;;;;;;;;;;7.60;72.10;;;3.00;100.00;95935.47;4964349;28;19910;-50
2023/11/16 01:31:42;;;;;;;;;;;7.70;72.20;;;3.07;100.00;95936.28;4956604;28;19914;-50
2023/11/16 01:34:10;;;;;;;;;;;7.70;72.30;;;3.10;100.00;95937.66;4957236;28;19948;-54
2023/11/16 01:36:40;;;;;;;;;;;7.80;72.30;;;3.12;100.00;95939.06;4960919;28;19928;-53
2023/11/16 01:39:09;;;;;;;;;;;7.80;72.20;;;3.16;100.00;95928.91;4943365;28;19949;-56
2023/11/16 01:41:35;;;;;;;;;;;7.90;72.30;;;3.18;100.00;95935.59;4954884;28;19910;-56
2023/11/16 01:44:01;;;;;;;;;;;7.90;72.30;;;3.21;100.00;95931.75;4956611;28;19929;-55
2023/11/16 01:46:30;;;;;;;;;;;8.00;72.30;;;3.25;100.00;95931.09;4960357;28;19996;-55
2023/11/16 01:48:57;;;;;;;;;;;8.00;72.30;;;3.33;100.00;95922.16;4944730;28;19945;-53
2023/11/16 01:51:28;;;;;;;;;;;8.10;72.30;;;3.37;100.00;95922.56;4959152;28;20308;-52
2023/11/16 01:54:04;;;;;;;;;;;8.20;72.40;;;3.40;100.00;95919.50;4957112;28;19957;-56
2023/11/16 01:56:35;;;;;;;;;;;8.20;72.40;;;3.46;100.00;95913.38;4962213;28;19944;-53
2023/11/16 01:59:03;;;;;;;;;;;8.20;72.30;;;3.50;100.00;95903.22;4958795;28;19914;-55
2023/11/16 02:01:34;;;;;;;;;;;8.30;72.30;;;3.52;100.00;95903.84;4952571;28;20383;-56
2023/11/16 02:04:04;;;;;;;;;;;8.30;72.20;;;3.52;100.00;95895.94;4958841;28;20384;-50
2023/11/16 02:06:31;;;;;;;;;;;8.30;72.20;;;3.48;100.00;95887.66;4957961;28;20303;-55
2023/11/16 02:08:58;;;;;;;;;;;8.40;72.20;;;3.56;100.00;95878.69;4961309;28;20385;-56
2023/11/16 02:11:24;;;;;;;;;;;8.40;72.30;;;3.58;100.00;95860.84;4958881;28;20025;-56
2023/11/16 02:13:50;;;;;;;;;;;8.40;72.30;;;3.63;100.00;95863.63;4960850;28;19932;-55
2023/11/16 02:16:16;;;;;;;;;;;8.40;72.30;;;3.71;100.00;95860.75;4954911;28;19921;-53
2023/11/16 02:18:42;;;;;;;;;;;8.50;72.30;;;3.79;100.00;95855.22;4954260;28;19960;-53
2023/11/16 02:21:09;;;;;;;;;;;8.60;72.50;;;3.86;100.00;95848.06;4963129;28;19961;-53
2023/11/16 02:23:36;;;;;;;;;;;8.60;72.50;;;3.89;100.00;95847.63;4960708;28;19937;-56
2023/11/16 02:26:03;;;;;;;;;;;8.70;72.50;;;3.96;100.00;95847.56;4940054;28;19918;-55
2023/11/16 02:28:30;;;;;;;;;;;8.70;72.50;;;4.02;100.00;95846.69;4955695;28;19914;-53
2023/11/16 02:31:00;;;;;;;;;;;8.80;72.50;;;4.05;100.00;95840.19;4971041;28;20403;-52
2023/11/16 02:33:27;;;;;;;;;;;8.80;72.40;;;4.10;100.00;95835.84;4957050;28;19909;-52
2023/11/16 02:35:54;;;;;;;;;;;8.90;72.40;;;4.11;100.00;95849.88;4955441;28;19948;-54
2023/11/16 02:38:20;;;;;;;;;;;8.90;72.30;;;4.15;100.00;95848.41;4959125;28;19917;-53
2023/11/16 02:40:51;;;;;;;;;;;9.00;73.10;;;4.18;100.00;95824.25;4952057;28;19914;-54
2023/11/16 02:43:21;;;;;;;;;;;9.00;72.20;;;4.22;100.00;95833.31;4960146;28;19930;-51
2023/11/16 02:45:48;;;;;;;;;;;9.10;72.30;;;4.23;100.00;95832.31;4957108;28;19922;-52
2023/11/16 02:48:15;;;;;;;;;;;9.10;72.10;;;4.24;100.00;95828.66;4963069;28;19949;-55
2023/11/16 02:50:41;;;;;;;;;;;9.10;72.00;;;4.21;100.00;95826.44;4964372;28;20336;-52
2023/11/16 02:53:08;;;;;;;;;;;9.10;71.90;;;4.21;100.00;95826.44;4963443;28;19941;-54
2023/11/16 02:55:34;;;;;;;;;;;9.10;71.80;;;4.20;100.00;95824.84;4959730;28;20013;-54
2023/11/16 02:58:00;;;;;;;;;;;9.10;71.80;;;4.14;100.00;95820.44;4959688;28;20440;-53
2023/11/16 03:00:26;;;;;;;;;;;9.00;71.70;;;4.11;100.00;95815.59;4961106;28;19914;-50
2023/11/16 03:02:53;;;;;;;;;;;9.00;71.60;;;4.03;100.00;95808.75;4957810;28;19949;-55
2023/11/16 03:05:21;;;;;;;;;;;9.00;71.60;;;4.00;100.00;95803.94;4961194;28;19980;-54
2023/11/16 03:07:52;;;;;;;;;;;8.90;71.50;;;3.91;100.00;95798.13;4959683;28;19917;-53
2023/11/16 03:10:19;;;;;;;;;;;8.80;71.40;;;3.81;100.00;95792.53;4962565;28;19910;-56
2023/11/16 03:12:45;;;;;;;;;;;8.80;71.30;;;3.71;100.00;95793.03;4960833;28;20360;-53
2023/11/16 03:15:12;;;;;;;;;;;8.70;71.30;;;3.66;100.00;95792.06;4957626;28;20277;-53
2023/11/16 03:17:39;;;;;;;;;;;8.60;71.20;;;3.57;100.00;95801.25;4951789;28;20369;-55
2023/11/16 03:20:12;;;;;;;;;;;8.50;71.30;;;3.48;100.00;95798.09;4956199;28;19910;-55
2023/11/16 03:22:39;;;;;;;;;;;8.50;71.30;;;3.45;100.00;95799.34;4951774;28;20052;-55
2023/11/16 03:25:07;;;;;;;;;;;8.40;71.40;;;3.41;100.00;95792.88;4957302;28;19949;-55
2023/11/16 03:27:33;;;;;;;;;;;8.30;71.40;;;3.30;100.00;95792.75;4962972;28;19922;-54
2023/11/16 03:29:59;;;;;;;;;;;8.20;71.40;;;3.20;100.00;95791.41;4958617;28;20526;-52
2023/11/16 03:32:25;;;;;;;;;;;8.20;71.40;;;3.14;100.00;95792.25;4956268;28;19937;-50
2023/11/16 03:34:52;;;;;;;;;;;8.10;71.30;;;3.10;100.00;95785.78;4951927;28;19910;-52
2023/11/16 03:37:19;;;;;;;;;;;8.00;71.20;;;2.97;100.00;95770.88;4957678;28;19909;-55
2023/11/16 03:39:48;;;;;;;;;;;7.90;71.20;;;2.85;100.00;95775.22;4952674;28;20380;-56
2023/11/16 03:42:13;;;;;;;;;;;7.80;71.30;;;2.76;100.00;95777.31;4961412;28;20368;-55
2023/11/16 03:44:40;;;;;;;;;;;7.80;71.40;;;2.64;100.00;95771.09;4958611;28;19918;-52
2023/11/16 03:47:06;;;;;;;;;;;7.70;71.30;;;2.63;100.00;95764.19;4969729;28;20288;-54
2023/11/16 03:49:32;;;;;;;;;;;7.60;71.30;;;2.58;100.00;95761.41;4955706;28;19921;-56
2023/11/16 03:51:58;;;;;;;;;;;7.50;71.20;;;2.48;100.00;95761.06;4960016;28;19938;-56
2023/11/16 03:54:24;;;;;;;;;;;7.50;71.30;;;2.43;100.00;95756.41;4959219;28;19916;-52
2023/11/16 03:56:53;;;;;;;;;;;7.40;71.30;;;2.35;100.00;95747.94;4962936;28;20289;-55
2023/11/16 03:59:24;;;;;;;;;;;7.30;71.30;;;2.28;100.00;95755.84;4961067;28;19957;-53
2023/11/16 04:01:53;;;;;;;;;;;7.20;71.20;;;2.18;100.00;95751.03;4946825;28;19910;-53
2023/11/16 04:04:19;;;;;;;;;;;7.20;71.30;;;2.11;100.00;95752.09;4966946;28;19999;-52
2023/11/16 04:06:46;;;;;;;;;;;7.10;71.30;;;2.03;100.00;95743.41;4959105;28;19910;-55
2023/11/16 04:09:12;;;;;;;;;;;7.00;71.30;;;1.95;100.00;95741.00;4963021;28;20264;-55
2023/11/16 04:11:43;;;;;;;;;;;6.90;71.40;;;1.94;100.00;95738.56;4967419;28;19910;-51
2023/11/16 04:14:10;;;;;;;;;;;6.90;71.50;;;1.91;100.00;95733.72;4967387;28;19917;-51
2023/11/16 04:16:36;;;;;;;;;;;6.80;71.40;;;1.84;100.00;95731.13;4961869;28;19962;-56
2023/11/16 04:19:06;;;;;;;;;;;6.80;71.50;;;1.77;100.00;95728.53;4956104;28;19921;-55
2023/11/16 04:21:34;;;;;;;;;;;6.70;71.50;;;1.72;100.00;95727.50;4961817;28;19918;-53
2023/11/16 04:24:05;;;;;;;;;;;6.70;71.60;;;1.70;100.00;95727.72;4945697;28;19914;-51
2023/11/16 04:26:36;;;;;;;;;;;6.60;71.60;;;1.63;100.00;95716.44;4963334;28;20001;-54
2023/11/16 04:29:06;;;;;;;;;;;6.60;71.60;;;1.61;100.00;95724.50;4969185;28;19973;-56
2023/11/16 04:31:35;;;;;;;;;;;6.50;71.60;;;1.55;100.00;95727.94;4955943;28;19921;-55
2023/11/16 04:34:01;;;;;;;;;;;6.50;71.60;;;1.52;100.00;95715.22;4957723;28;19920;-53
2023/11/16 04:36:31;;;;;;;;;;;6.50;71.80;;;1.46;100.00;95710.00;4956864;28;19918;-52
2023/11/16 04:38:57;;;;;;;;;;;6.40;71.70;;;1.49;100.00;95709.59;4961498;28;19917;-52
2023/11/16 04:41:28;;;;;;;;;;;6.40;71.80;;;1.44;100.00;95706.75;4961400;28;19937;-54
2023/11/16 04:43:57;;;;;;;;;;;6.40;71.90;;;1.45;100.00;95708.38;4961212;28;19922;-55
2023/11/16 04:46:26;;;;;;;;;;;6.40;71.90;;;1.50;100.00;95698.88;4967192;28;19910;-52
2023/11/16 04:48:53;;;;;;;;;;;6.40;72.10;;;1.53;100.00;95700.28;4963330;28;19977;-55
2023/11/16 04:51:20;;;;;;;;;;;6.40;72.10;;;1.50;100.00;95696.25;4960437;28;19910;-51
2023/11/16 04:53:51;;;;;;;;;;;6.40;72.20;;;1.53;100.00;95692.41;4949263;28;19910;-52
2023/11/16 04:56:17;;;;;;;;;;;6.30;72.10;;;1.53;100.00;95693.22;4963689;28;19936;-53
2023/11/16 04:58:45;;;;;;;;;;;6.40;72.20;;;1.54;100.00;95696.66;4954588;28;19910;-54
2023/11/16 05:01:16;;;;;;;;;;;6.40;72.30;;;1.53;100.00;95695.84;4967232;28;20230;-51
2023/11/16 05:03:45;;;;;;;;;;;6.40;72.30;;;1.58;100.00;95696.03;4959111;28;19914;-52
2023/11/16 05:06:12;;;;;;;;;;;6.40;72.30;;;1.54;100.00;95694.84;4954535;28;20392;-51
2023/11/16 05:08:40;;;;;;;;;;;6.40;72.30;;;1.55;100.00;95699.06;4962116;28;19937;-53
2023/11/16 05:11:06;;;;;;;;;;;6.40;72.20;;;1.53;100.00;95693.22;4967915;28;19913;-55
2023/11/16 05:13:32;;;;;;;;;;;6.40;72.20;;;1.49;100.00;95689.38;4937238;28;20300;-51
2023/11/16 05:15:59;;;;;;;;;;;6.30;72.10;;;1.47;100.00;95682.72;4962486;28;19921;-52
2023/11/16 05:18:25;;;;;;;;;;;6.30;72.10;;;1.45;100.00;95690.00;4956751;28;19933;-55
2023/11/16 05:20:53;;;;;;;;;;;6.30;72.10;;;1.43;100.00;95686.78;4963482;28;20288;-51
2023/11/16 05:23:19;;;;;;;;;;;6.30;72.10;;;1.38;100.00;95688.19;4959879;28;19964;-53
2023/11/16 05:25:46;;;;;;;;;;;6.30;72.00;;;1.32;100.00;95688.22;4959633;28;19910;-52
2023/11/16 05:28:12;;;;;;;;;;;6.30;72.00;;;1.30;100.00;95669.22;4964535;28;19928;-54
2023/11/16 05:30:38;;;;;;;;;;;6.20;72.00;;;1.25;100.00;95675.06;4961584;28;19910;-51
2023/11/16 05:33:04;;;;;;;;;;;6.20;72.00;;;1.21;100.00;95673.88;4960840;28;19910;-54
2023/11/16 05:35:32;;;;;;;;;;;6.20;72.00;;;1.15;100.00;95670.25;4955729;28;19940;-51
2023/11/16 05:37:58;;;;;;;;;;;6.20;72.00;;;1.14;100.00;95673.09;4959345;28;20395;-50
2023/11/16 05:40:26;;;;;;;;;;;6.10;72.00;;;1.11;100.00;95670.88;4960256;28;19910;-52
2023/11/16 05:45:18;;;;;;;;;;;6.10;72.20;;;1.23;100.00;95664.00;4985385;23;19933;-57
2023/11/16 05:47:44;;;;;;;;;;;6.10;72.20;;;1.20;100.00;95668.84;4963491;28;19914;-59
2023/11/16 05:50:10;;;;;;;;;;;6.10;72.20;;;1.17;100.00;95667.44;4969897;28;19917;-56
2023/11/16 05:52:37;;;;;;;;;;;6.10;72.20;;;1.20;100.00;95667.03;4950592;28;19910;-56
2023/11/16 05:55:03;;;;;;;;;;;6.00;72.30;;;1.20;100.00;95663.59;4972353;28;19910;-57
2023/11/16 05:57:29;;;;;;;;;;;6.00;72.30;;;1.15;100.00;95658.94;4970507;28;19918;-55
2023/11/16 05:59:56;;;;;;;;;;;6.00;72.30;;;1.13;100.00;95656.53;4967856;28;19921;-58
2023/11/16 06:02:22;;;;;;;;;;;6.00;72.30;;;1.12;100.00;95649.66;4964768;28;19956;-59
2023/11/16 06:04:50;;;;;;;;;;;6.00;72.30;;;1.17;100.00;95648.25;4962820;28;19961;-55
2023/11/16 06:07:16;;;;;;;;;;;6.00;72.40;;;1.17;100.00;95643.00;4960144;28;19910;-59
2023/11/16 06:09:41;;;;;;;;;;;6.00;72.30;;;1.12;100.00;95639.16;4955422;28;19921;-53
2023/11/16 06:12:08;;;;;;;;;;;5.90;72.30;;;1.08;100.00;95629.28;4956014;28;19967;-55
2023/11/16 06:14:35;;;;;;;;;;;6.00;72.40;;;1.09;100.00;95631.69;4956623;28;19914;-59
2023/11/16 06:17:01;;;;;;;;;;;6.00;72.40;;;1.09;100.00;95631.69;4965047;28;19968;-59
2023/11/16 06:19:28;;;;;;;;;;;6.00;72.50;;;1.09;100.00;95623.81;4968727;28;19914;-59
2023/11/16 06:21:54;;;;;;;;;;;6.00;72.50;;;1.09;100.00;95623.03;4957801;28;20448;-55
2023/11/16 06:24:20;;;;;;;;;;;6.00;72.40;;;1.07;100.00;95625.88;4969036;28;19941;-55
2023/11/16 06:26:46;;;;;;;;;;;6.00;72.50;;;1.05;100.00;95616.59;4972511;28;19950;-55
2023/11/16 06:29:14;;;;;;;;;;;6.00;72.40;;;1.04;100.00;95615.78;4970285;28;20013;-55
2023/11/16 06:31:41;;;;;;;;;;;6.00;72.40;;;1.05;100.00;95603.47;4972522;28;19964;-55
2023/11/16 06:34:08;;;;;;;;;;;6.00;72.40;;;1.06;100.00;95586.69;4967190;28;19965;-56
2023/11/16 06:36:34;;;;;;;;;;;6.00;72.40;;;1.08;100.00;95582.88;4972432;28;19914;-55
2023/11/16 06:39:01;;;;;;;;;;;6.00;72.40;;;1.08;100.00;95568.94;4972127;28;20064;-54
2023/11/16 06:41:27;;;;;;;;;;;6.00;72.40;;;1.06;100.00;95561.28;4964594;28;19917;-55
2023/11/16 06:43:55;;;;;;;;;;;6.10;72.50;;;1.11;100.00;95571.97;4971642;28;19924;-55
2023/11/16 06:46:21;;;;;;;;;;;6.10;72.40;;;1.29;100.00;95581.03;4959709;28;20012;-55
2023/11/16 06:48:47;;;;;;;;;;;6.10;72.60;;;1.39;100.00;95586.63;4972151;28;19944;-54
2023/11/16 06:51:17;;;;;;;;;;;6.20;72.80;;;1.44;100.00;95586.81;4970686;28;27751;-57
2023/11/16 06:53:43;;;;;;;;;;;6.20;72.70;;;1.51;100.00;95584.97;4964145;28;19945;-55
2023/11/16 06:56:11;;;;;;;;;;;6.30;72.70;;;1.57;100.00;95592.03;4971773;28;19914;-58
2023/11/16 06:58:37;;;;;;;;;;;6.30;72.70;;;1.63;100.00;95590.41;4964697;28;19944;-55
2023/11/16 07:01:04;;;;;;;;;;;6.40;72.70;;;1.68;100.00;95587.13;4972117;28;19956;-54
2023/11/16 07:03:30;;;;;;;;;;;6.50;72.70;;;1.72;100.00;95580.44;4969302;28;20024;-57
2023/11/16 07:05:56;;;;;;;;;;;6.50;72.60;;;1.74;100.00;95587.09;4971011;28;19921;-54
2023/11/16 07:08:22;;;;;;;;;;;6.60;72.60;;;1.85;100.00;95591.72;4971968;28;19917;-57
2023/11/16 07:10:48;;;;;;;;;;;6.70;72.80;;;1.91;100.00;95595.28;4965378;28;19914;-58
2023/11/16 07:13:19;;;;;;;;;;;6.80;72.70;;;1.93;100.00;95588.03;4971255;28;19913;-56
2023/11/16 07:15:48;;;;;;;;;;;6.90;72.70;;;1.97;100.00;95586.56;4967534;28;19920;-52
2023/11/16 07:18:19;;;;;;;;;;;6.90;72.50;;;2.05;100.00;95580.28;4969038;28;19924;-54
2023/11/16 07:20:47;;;;;;;;;;;7.00;72.40;;;2.07;100.00;95571.19;4958863;28;20348;-56
2023/11/16 07:23:14;;;;;;;;;;;7.10;72.40;;;2.10;100.00;95580.47;4964289;28;20428;-52
2023/11/16 07:25:43;;;;;;;;;;;7.20;72.30;;;2.14;100.00;95583.47;4973246;28;19910;-58
2023/11/16 07:28:09;;;;;;;;;;;7.30;72.30;;;2.19;100.00;95571.28;4970792;28;19944;-58
2023/11/16 07:30:35;;;;;;;;;;;7.40;72.30;;;2.27;100.00;95567.63;4969075;28;20424;-54
2023/11/16 07:33:05;;;;;;;;;;;7.40;72.30;;;2.37;100.00;95554.00;4974451;28;19924;-58
2023/11/16 07:35:33;;;;;;;;;;;7.60;72.30;;;2.49;100.00;95557.56;4966181;28;19913;-60
2023/11/16 07:38:00;;;;;;;;;;;7.60;72.30;;;2.58;100.00;95558.91;4976360;28;19909;-52
2023/11/16 07:40:26;;;;;;;;;;;7.70;72.20;;;2.68;100.00;95563.66;4968567;28;19910;-56
2023/11/16 07:42:53;;;;;;;;;;;7.90;72.30;;;2.75;100.00;95559.16;4976285;28;19917;-54
2023/11/16 07:45:19;;;;;;;;;;;8.00;72.20;;;2.82;100.00;95549.41;4971974;28;19924;-55
2023/11/16 07:47:47;;;;;;;;;;;8.10;72.10;;;2.89;100.00;95558.03;4972337;28;20284;-56
2023/11/16 07:50:13;;;;;;;;;;;8.20;72.10;;;2.95;100.00;95548.47;4972422;28;19910;-54
2023/11/16 07:52:43;;;;;;;;;;;8.30;72.00;;;3.03;100.00;95548.16;4969166;28;19910;-57
2023/11/16 07:55:18;;;;;;;;;;;8.40;72.00;;;3.12;100.00;95564.47;4958546;28;19936;-59
2023/11/16 07:57:52;;;;;;;;;;;8.50;71.90;;;3.21;100.00;95558.72;4956777;28;19910;-59
2023/11/16 08:00:27;;;;;;;;;;;8.70;71.90;;;3.33;100.00;95566.69;4960058;28;19914;-55
2023/11/16 08:05:42;;;;;;;;;;;9.00;71.70;;;3.59;100.00;95565.59;4955052;28;19980;-58
2023/11/16 08:08:13;;;;;;;;;;;9.20;71.70;;;3.74;100.00;95562.56;4956046;28;20408;-57
2023/11/16 08:10:42;;;;;;;;;;;9.40;71.60;;;3.92;100.00;95559.13;4957179;28;19910;-59
2023/11/16 08:13:10;;;;;;;;;;;9.60;71.50;;;4.12;100.00;95564.91;4938947;28;19942;-53
2023/11/16 08:15:40;;;;;;;;;;;9.80;72.30;;;4.29;100.00;95554.50;4956252;28;19913;-55
2023/11/16 08:18:10;;;;;;;;;;;10.00;71.30;;;4.43;100.00;95546.44;4951997;28;20333;-53
2023/11/16 08:20:36;;;;;;;;;;;10.20;71.20;;;4.57;100.00;95539.91;4947989;28;19921;-55
2023/11/16 08:23:02;;;;;;;;;;;10.40;71.10;;;4.68;100.00;95540.97;4963747;28;19910;-53
2023/11/16 08:25:30;;;;;;;;;;;10.60;71.00;;;4.74;100.00;95538.22;4974305;28;20073;-58
2023/11/16 08:27:57;;;;;;;;;;;10.70;70.90;;;4.88;100.00;95530.84;4984800;28;19910;-58
2023/11/16 08:30:24;;;;;;;;;;;10.90;70.90;;;5.03;100.00;95527.75;4969353;28;19933;-54
2023/11/16 08:32:51;;;;;;;;;;;11.00;70.80;;;5.17;100.00;95528.31;4972352;28;19952;-52
2023/11/16 08:35:23;;;;;;;;;;;11.10;70.80;;;5.22;100.00;95528.44;4967764;28;19916;-56
2023/11/16 08:37:49;;;;;;;;;;;11.10;70.60;;;5.28;100.00;95527.50;4965543;28;20368;-53
2023/11/16 08:40:18;;;;;;;;;;;11.30;70.60;;;5.38;100.00;95521.63;4967669;28;19953;-55
2023/11/16 08:42:49;;;;;;;;;;;11.30;70.50;;;5.43;100.00;95527.81;4972034;28;19914;-57
2023/11/16 08:45:18;;;;;;;;;;;11.40;70.40;;;5.52;100.00;95529.06;4974022;28;19941;-58
2023/11/16 08:47:56;;;;;;;;;;;11.40;70.40;;;5.60;100.00;95519.16;4967478;28;20003;-58
2023/11/16 08:50:22;;;;;;;;;;;11.50;71.10;;;5.59;100.00;95518.38;4972385;28;19992;-56
2023/11/16 08:52:50;;;;;;;;;;;11.60;70.20;;;5.56;100.00;95518.84;4968535;28;20288;-58
2023/11/16 08:55:21;;;;;;;;;;;11.70;70.00;;;5.58;100.00;95514.13;4956717;28;19910;-58
2023/11/16 08:57:50;;;;;;;;;;;11.60;69.90;;;5.54;100.00;95515.59;4969051;28;19925;-58
2023/11/16 09:00:37;;;;;;;;;;;11.60;69.80;;;5.64;100.00;95515.00;4971558;28;19910;-54
2023/11/16 09:03:07;;;;;;;;;;;11.60;69.80;;;5.69;100.00;95515.13;4963299;28;19940;-54
2023/11/16 09:05:39;;;;;;;;;;;11.60;69.90;;;5.73;100.00;95514.41;4980885;28;19910;-56
2023/11/16 09:08:10;;;;;;;;;;;11.60;70.00;;;5.75;100.00;95516.81;4972553;28;19941;-57
2023/11/16 09:10:37;;;;;;;;;;;11.60;69.90;;;5.80;100.00;95509.78;4970396;28;20353;-57
2023/11/16 09:13:03;;;;;;;;;;;11.70;70.10;;;5.79;100.00;95504.72;4973196;28;19945;-58
2023/11/16 09:15:30;;;;;;;;;;;11.60;69.90;;;5.84;100.00;95509.31;4971679;28;19922;-57
2023/11/16 09:17:59;;;;;;;;;;;11.70;70.00;;;5.80;100.00;95511.63;4968560;28;19910;-54
2023/11/16 09:20:28;;;;;;;;;;;11.60;69.90;;;5.81;100.00;95518.53;4973461;28;19910;-50
2023/11/16 09:22:57;;;;;;;;;;;11.60;70.00;;;5.74;100.00;95520.50;4964791;28;19968;-56
2023/11/16 09:25:25;;;;;;;;;;;11.50;69.90;;;5.80;100.00;95515.06;4973408;28;19910;-52
2023/11/16 09:27:54;;;;;;;;;;;11.50;69.90;;;5.76;100.00;95518.41;4968285;28;19944;-56
2023/11/16 09:30:22;;;;;;;;;;;11.40;69.90;;;5.74;100.00;95510.72;4972957;28;20005;-53
2023/11/16 09:32:57;;;;;;;;;;;11.40;69.90;;;5.79;100.00;95507.38;4972976;28;19945;-58
2023/11/16 09:35:25;;;;;;;;;;;11.40;70.10;;;5.83;100.00;95508.53;4964001;28;20364;-52
2023/11/16 09:37:57;;;;;;;;;;;11.40;70.10;;;5.82;100.00;95503.47;4973248;28;19910;-57
2023/11/16 09:40:31;;;;;;;;;;;11.40;70.20;;;5.73;100.00;95506.47;4963822;28;20358;-57
2023/11/16 09:43:00;;;;;;;;;;;11.30;70.10;;;5.72;100.00;95494.28;4968939;28;20380;-57
2023/11/16 09:45:31;;;;;;;;;;;11.30;70.10;;;5.79;100.00;95475.66;4970737;28;20018;-56
2023/11/16 09:48:12;;;;;;;;;;;11.30;70.20;;;5.83;100.00;95468.88;4965667;28;20280;-54
2023/11/16 09:50:44;;;;;;;;;;;11.30;70.30;;;5.86;100.00;95455.19;4973072;28;19921;-57
2023/11/16 09:53:18;;;;;;;;;;;11.30;70.40;;;5.94;100.00;95448.72;4964695;28;19910;-51
2023/11/16 09:55:50;;;;;;;;;;;11.40;70.50;;;5.97;100.00;95445.59;4972827;28;20079;-57
2023/11/16 09:58:23;;;;;;;;;;;11.50;70.50;;;5.99;100.00;95439.03;4964958;28;19910;-55
2023/11/16 10:00:57;;;;;;;;;;;11.60;70.50;;;5.98;100.00;95429.47;4972884;28;19937;-55
2023/11/16 10:03:36;;;;;;;;;;;11.70;70.40;;;6.10;100.00;95420.69;4970972;28;19913;-56
2023/11/16 10:06:04;;;;;;;;;;;11.70;70.30;;;6.17;100.00;95410.75;4971897;28;19917;-54
2023/11/16 10:08:33;;;;;;;;;;;11.80;70.20;;;6.22;100.00;95410.84;4968731;28;20367;-57
2023/11/16 10:11:05;;;;;;;;;;;11.90;70.30;;;6.23;100.00;95399.19;4964448;28;20720;-52
2023/11/16 10:13:34;;;;;;;;;;;11.90;70.10;;;6.31;100.00;95393.53;4972415;28;19909;-56
2023/11/16 10:16:09;;;;;;;;;;;11.90;70.10;;;6.33;100.00;95372.94;4966459;28;20373;-58
2023/11/16 10:18:36;;;;;;;;;;;12.00;70.30;;;6.38;100.00;95370.34;4972654;28;19937;-57
2023/11/16 10:21:06;;;;;;;;;;;12.00;70.20;;;6.48;100.00;95354.59;4972549;28;19933;-58
2023/11/16 10:23:33;;;;;;;;;;;12.10;70.30;;;6.51;100.00;95347.22;4969428;28;19916;-58
2023/11/16 10:25:59;;;;;;;;;;;12.20;70.30;;;6.48;100.00;95345.84;4972574;28;20414;-57
2023/11/16 10:28:27;;;;;;;;;;;12.30;70.20;;;6.41;100.00;95326.72;4965520;28;19914;-58
2023/11/16 10:30:57;;;;;;;;;;;12.40;70.00;;;6.47;100.00;95312.50;4955186;28;20538;-58
2023/11/16 10:33:25;;;;;;;;;;;12.50;69.80;;;6.62;100.00;95304.78;4969950;28;19965;-57
2023/11/16 10:35:57;;;;;;;;;;;12.70;69.80;;;6.85;100.00;95287.03;4959332;28;19920;-56
2023/11/16 10:38:28;;;;;;;;;;;12.90;69.80;;;6.90;100.00;95250.03;4972413;28;19909;-57
2023/11/16 10:40:55;;;;;;;;;;;13.10;69.60;;;7.09;100.00;95203.59;4964467;28;19944;-55
2023/11/16 10:43:28;;;;;;;;;;;13.40;69.40;;;7.26;100.00;95166.38;4962802;28;20349;-57
2023/11/16 10:45:56;;;;;;;;;;;13.70;69.20;;;7.13;100.00;95125.22;4959265;28;19910;-53
2023/11/16 10:48:23;;;;;;;;;;;14.00;68.80;;;7.15;100.00;95077.31;4972008;28;19916;-58
2023/11/16 10:50:51;;;;;;;;;;;14.10;68.30;;;7.49;100.00;95063.72;4971822;28;19909;-54
2023/11/16 10:53:24;;;;;;;;;;;14.30;68.20;;;7.65;100.00;95037.03;4964106;28;20381;-56
2023/11/16 10:55:55;;;;;;;;;;;14.40;68.10;;;7.60;99.08;95015.78;4971942;28;19953;-56
2023/11/16 10:58:29;;;;;;;;;;;14.60;67.90;;;7.65;95.72;95004.44;4964429;28;20001;-57
2023/11/16 11:01:02;;;;;;;;;;;14.70;67.60;;;7.80;94.70;94998.34;4971381;28;20364;-57
2023/11/16 11:03:28;;;;;;;;;;;14.80;67.30;;;7.92;97.21;94988.31;4970422;28;19920;-57
2023/11/16 11:05:58;;;;;;;;;;;14.80;67.20;;;8.16;93.55;95003.75;4970166;28;20292;-56
2023/11/16 11:08:37;;;;;;;;;;;14.90;67.30;;;8.31;92.94;95004.59;4968226;28;20368;-56
2023/11/16 11:11:04;;;;;;;;;;;15.00;67.30;;;8.46;90.43;94998.53;4965437;28;20003;-58
2023/11/16 11:13:33;;;;;;;;;;;15.00;67.20;;;8.64;89.98;94991.88;4968677;28;19956;-57
2023/11/16 11:16:07;;;;;;;;;;;15.10;67.20;;;8.85;91.13;94997.97;4966810;28;19918;-57
2023/11/16 11:18:51;;;;;;;;;;;15.20;67.30;;;9.05;90.35;94983.84;4970529;28;20373;-57
2023/11/16 11:21:21;;;;;;;;;;;15.30;67.20;;;9.11;86.59;94961.53;4963802;28;20347;-57
2023/11/16 11:24:06;;;;;;;;;;;15.40;67.00;;;9.24;84.02;94946.88;4964913;28;19909;-55
2023/11/16 11:26:49;;;;;;;;;;;15.50;66.80;;;9.33;84.69;94926.63;4971683;28;19980;-55
2023/11/16 11:29:23;;;;;;;;;;;15.60;66.50;;;9.38;83.85;94893.94;4951178;28;19918;-57
2023/11/16 11:32:00;;;;;;;;;;;15.60;66.40;;;9.35;82.39;94875.88;4966346;28;19945;-58
2023/11/16 11:34:36;;;;;;;;;;;15.60;66.30;;;9.28;79.81;94873.53;4942084;28;19910;-57